Time;durP1;ratioP1;P1;durP2;ratioP2;P2;SDS_P1;SDS_P2;PMS_P1;PMS_P2;Temp;Humidity;BMP_temperature;BMP_pressure;BME280_temperature;BME280_humidity;BME280_pressure;Samples;Min_cycle;Max_cycle;Signal;HPM_P1;HPM_P2
2023/11/05 00:01:27;;;;;;;0.80;0.53;;;;;;;;;;4908133;29;20184;-89
2023/11/05 00:04:31;;;;;;;1.47;0.70;;;;;;;;;;4897236;29;20208;-90
2023/11/05 00:07:35;;;;;;;0.67;0.67;;;;;;;;;;4907905;29;20228;-90
2023/11/05 00:10:39;;;;;;;0.83;0.60;;;;;;;;;;4907891;29;20197;-90
2023/11/05 00:13:43;;;;;;;2.27;0.87;;;;;;;;;;4907703;29;20185;-89
2023/11/05 00:16:47;;;;;;;1.37;0.60;;;;;;;;;;4907911;29;20710;-89
2023/11/05 00:19:51;;;;;;;0.57;0.40;;;;;;;;;;4907173;29;20639;-90
2023/11/05 00:22:56;;;;;;;1.00;0.50;;;;;;;;;;4907593;29;20204;-89
2023/11/05 00:26:00;;;;;;;0.47;0.40;;;;;;;;;;4918735;29;20224;-89
2023/11/05 00:29:04;;;;;;;0.50;0.50;;;;;;;;;;4907522;29;20212;-89
2023/11/05 00:32:11;;;;;;;0.83;0.50;;;;;;;;;;4907558;29;20192;-89
2023/11/05 00:35:15;;;;;;;0.53;0.50;;;;;;;;;;4897616;29;20635;-89
2023/11/05 00:38:19;;;;;;;0.50;0.50;;;;;;;;;;4906335;29;20189;-88
2023/11/05 00:41:23;;;;;;;0.97;0.53;;;;;;;;;;4907559;29;20185;-89
2023/11/05 00:44:27;;;;;;;1.73;0.50;;;;;;;;;;4898389;29;20690;-88
2023/11/05 00:47:33;;;;;;;0.73;0.60;;;;;;;;;;4920060;29;20229;-89
2023/11/05 00:50:37;;;;;;;0.50;0.50;;;;;;;;;;4909467;29;20192;-89
2023/11/05 00:53:45;;;;;;;0.60;0.60;;;;;;;;;;4908153;29;20189;-89
2023/11/05 00:56:49;;;;;;;0.87;0.50;;;;;;;;;;4907135;29;20228;-90
2023/11/05 00:59:53;;;;;;;0.60;0.40;;;;;;;;;;4907565;29;20192;-90
2023/11/05 01:02:58;;;;;;;0.50;0.43;;;;;;;;;;4907230;29;20216;-89
2023/11/05 01:06:03;;;;;;;0.90;0.30;;;;;;;;;;4906874;29;20693;-89
2023/11/05 01:09:07;;;;;;;0.40;0.40;;;;;;;;;;4906710;29;20185;-89
2023/11/05 01:12:11;;;;;;;3.33;0.50;;;;;;;;;;4906868;29;20185;-89
2023/11/05 01:15:15;;;;;;;0.93;0.40;;;;;;;;;;4917512;29;20188;-89
2023/11/05 01:18:19;;;;;;;0.33;0.33;;;;;;;;;;4906862;29;20562;-89
2023/11/05 01:21:24;;;;;;;0.50;0.40;;;;;;;;;;4906822;29;20185;-89
2023/11/05 01:24:29;;;;;;;0.50;0.40;;;;;;;;;;4895776;29;20212;-89
2023/11/05 01:27:33;;;;;;;0.77;0.50;;;;;;;;;;4906686;29;20232;-89
2023/11/05 01:30:37;;;;;;;0.57;0.43;;;;;;;;;;4905857;29;20208;-89
2023/11/05 01:33:41;;;;;;;0.90;0.50;;;;;;;;;;4895468;29;20181;-90
2023/11/05 01:36:45;;;;;;;0.60;0.40;;;;;;;;;;4895509;29;20228;-89
2023/11/05 01:39:49;;;;;;;0.60;0.40;;;;;;;;;;4906537;29;20189;-89
2023/11/05 01:42:57;;;;;;;0.70;0.40;;;;;;;;;;4896056;29;20187;-89
2023/11/05 01:46:02;;;;;;;0.63;0.50;;;;;;;;;;4917443;29;20220;-89
2023/11/05 01:49:06;;;;;;;0.43;0.43;;;;;;;;;;4895636;29;20193;-89
2023/11/05 01:52:11;;;;;;;0.60;0.50;;;;;;;;;;4895445;29;20189;-89
2023/11/05 01:55:16;;;;;;;0.47;0.40;;;;;;;;;;4906039;29;20197;-89
2023/11/05 01:58:21;;;;;;;0.50;0.47;;;;;;;;;;4906370;29;20650;-90
2023/11/05 02:01:26;;;;;;;0.50;0.40;;;;;;;;;;4917853;29;20189;-89
2023/11/05 02:04:30;;;;;;;0.60;0.30;;;;;;;;;;4895134;29;20208;-90
2023/11/05 02:07:34;;;;;;;0.30;0.30;;;;;;;;;;4906207;29;20713;-89
2023/11/05 02:10:39;;;;;;;0.30;0.30;;;;;;;;;;4906637;29;20189;-90
2023/11/05 02:13:48;;;;;;;0.57;0.40;;;;;;;;;;4916879;29;20185;-89
2023/11/05 02:16:52;;;;;;;0.77;0.40;;;;;;;;;;4906424;29;20220;-89
2023/11/05 02:19:56;;;;;;;0.40;0.40;;;;;;;;;;4906525;29;20189;-89
2023/11/05 02:23:02;;;;;;;0.33;0.33;;;;;;;;;;4895395;29;20189;-89
2023/11/05 02:26:08;;;;;;;0.30;0.30;;;;;;;;;;4906003;29;20233;-89
2023/11/05 02:29:12;;;;;;;0.40;0.40;;;;;;;;;;4896605;29;20216;-89
2023/11/05 02:32:16;;;;;;;0.93;0.40;;;;;;;;;;4918394;29;20189;-89
2023/11/05 02:35:21;;;;;;;1.33;0.50;;;;;;;;;;4907460;29;20193;-89
2023/11/05 02:38:26;;;;;;;0.50;0.40;;;;;;;;;;4907506;29;20192;-88
2023/11/05 02:41:29;;;;;;;0.50;0.40;;;;;;;;;;4895750;29;20193;-88
2023/11/05 02:44:34;;;;;;;0.50;0.30;;;;;;;;;;4898943;29;20217;-88
2023/11/05 02:47:39;;;;;;;0.30;0.30;;;;;;;;;;4899341;29;20228;-88
2023/11/05 02:50:43;;;;;;;0.30;0.30;;;;;;;;;;4909844;29;20189;-89
2023/11/05 02:53:48;;;;;;;0.93;0.53;;;;;;;;;;4909886;29;20214;-88
2023/11/05 02:56:53;;;;;;;0.40;0.40;;;;;;;;;;4899346;29;20229;-88
2023/11/05 02:59:57;;;;;;;0.50;0.30;;;;;;;;;;4907152;29;20185;-88
2023/11/05 03:03:02;;;;;;;0.40;0.40;;;;;;;;;;4925039;29;20197;-88
2023/11/05 03:06:07;;;;;;;0.80;0.40;;;;;;;;;;4920564;29;20212;-88
2023/11/05 03:09:13;;;;;;;0.47;0.40;;;;;;;;;;4909339;29;20189;-88
2023/11/05 03:12:18;;;;;;;1.00;0.60;;;;;;;;;;4898436;29;20185;-88
2023/11/05 03:15:23;;;;;;;0.53;0.40;;;;;;;;;;4909230;29;20185;-88
2023/11/05 03:18:28;;;;;;;2.37;0.40;;;;;;;;;;4898135;29;20647;-88
2023/11/05 03:21:32;;;;;;;0.30;0.30;;;;;;;;;;4898232;29;20189;-88
2023/11/05 03:24:39;;;;;;;0.50;0.40;;;;;;;;;;4908880;29;20690;-88
2023/11/05 03:27:44;;;;;;;0.40;0.40;;;;;;;;;;4908515;29;20229;-89
2023/11/05 03:30:48;;;;;;;1.17;0.50;;;;;;;;;;4908157;29;20208;-88
2023/11/05 03:33:52;;;;;;;0.37;0.37;;;;;;;;;;4897451;29;20189;-88
2023/11/05 03:36:56;;;;;;;1.27;0.40;;;;;;;;;;4908241;29;20220;-88
2023/11/05 03:40:00;;;;;;;0.77;0.40;;;;;;;;;;4897331;29;20189;-88
2023/11/05 03:43:04;;;;;;;0.40;0.30;;;;;;;;;;4908297;29;20189;-88
2023/11/05 03:46:12;;;;;;;0.40;0.40;;;;;;;;;;4912788;29;20221;-88
2023/11/05 03:49:17;;;;;;;2.13;0.60;;;;;;;;;;4897247;29;20194;-88
2023/11/05 03:52:21;;;;;;;2.57;0.40;;;;;;;;;;4907610;29;20642;-88
2023/11/05 03:55:25;;;;;;;0.73;0.47;;;;;;;;;;4906893;29;20188;-88
2023/11/05 03:58:29;;;;;;;1.17;0.50;;;;;;;;;;4907923;29;20209;-88
2023/11/05 04:01:33;;;;;;;2.93;0.47;;;;;;;;;;4907655;29;20185;-88
2023/11/05 04:04:38;;;;;;;0.50;0.30;;;;;;;;;;4896859;29;20209;-88
2023/11/05 04:07:42;;;;;;;1.00;0.40;;;;;;;;;;4896558;29;20578;-88
2023/11/05 04:10:47;;;;;;;3.20;0.57;;;;;;;;;;4896677;29;20189;-91
2023/11/05 04:13:54;;;;;;;0.53;0.40;;;;;;;;;;4896920;29;20185;-88
2023/11/05 04:16:57;;;;;;;0.50;0.40;;;;;;;;;;4896505;29;20694;-88
2023/11/05 04:20:04;;;;;;;0.50;0.50;;;;;;;;;;4918116;29;20192;-88
2023/11/05 04:23:08;;;;;;;0.40;0.40;;;;;;;;;;4918081;29;20185;-88
2023/11/05 04:26:13;;;;;;;2.37;0.60;;;;;;;;;;4907387;29;20213;-88
2023/11/05 04:29:17;;;;;;;0.77;0.67;;;;;;;;;;4896216;29;20212;-88
2023/11/05 04:32:22;;;;;;;0.93;0.40;;;;;;;;;;4906860;29;20181;-91
2023/11/05 04:35:26;;;;;;;0.40;0.40;;;;;;;;;;4907243;29;20185;-91
2023/11/05 04:38:30;;;;;;;0.40;0.40;;;;;;;;;;4907162;29;20185;-88
2023/11/05 04:41:34;;;;;;;0.90;0.40;;;;;;;;;;4917979;29;20193;-88
2023/11/05 04:44:38;;;;;;;1.70;0.30;;;;;;;;;;4896091;29;20216;-88
2023/11/05 04:47:42;;;;;;;0.30;0.30;;;;;;;;;;4896360;29;20228;-88
2023/11/05 04:50:46;;;;;;;0.40;0.30;;;;;;;;;;4895837;29;20184;-88
2023/11/05 04:53:51;;;;;;;0.30;0.30;;;;;;;;;;4906882;29;20188;-88
2023/11/05 04:56:55;;;;;;;0.33;0.30;;;;;;;;;;4896105;29;20225;-88
2023/11/05 04:59:59;;;;;;;1.03;0.40;;;;;;;;;;4906731;29;20184;-88
2023/11/05 05:03:03;;;;;;;0.50;0.40;;;;;;;;;;4906598;29;20189;-88
2023/11/05 05:06:07;;;;;;;0.60;0.40;;;;;;;;;;4906099;29;20229;-88
2023/11/05 05:09:12;;;;;;;0.80;0.30;;;;;;;;;;4906555;29;20196;-88
2023/11/05 05:12:17;;;;;;;0.30;0.30;;;;;;;;;;4917340;29;20193;-88
2023/11/05 05:15:21;;;;;;;0.30;0.30;;;;;;;;;;4895929;29;20192;-88
2023/11/05 05:18:25;;;;;;;0.30;0.30;;;;;;;;;;4906500;29;20535;-88
2023/11/05 05:21:29;;;;;;;0.73;0.30;;;;;;;;;;4895461;29;20185;-88
2023/11/05 05:24:33;;;;;;;0.50;0.40;;;;;;;;;;4895422;29;20212;-88
2023/11/05 05:27:37;;;;;;;0.70;0.50;;;;;;;;;;4906223;29;20224;-89
2023/11/05 05:30:42;;;;;;;0.50;0.33;;;;;;;;;;4906207;29;20586;-89
2023/11/05 05:33:46;;;;;;;0.73;0.40;;;;;;;;;;4895467;29;20190;-89
2023/11/05 05:36:50;;;;;;;2.40;0.40;;;;;;;;;;4905836;29;20253;-89
2023/11/05 05:39:54;;;;;;;0.60;0.30;;;;;;;;;;4895022;29;20192;-89
2023/11/05 05:42:59;;;;;;;0.40;0.30;;;;;;;;;;4917019;29;20189;-89
2023/11/05 05:46:03;;;;;;;0.27;0.27;;;;;;;;;;4905845;29;20629;-89
2023/11/05 05:49:08;;;;;;;0.37;0.33;;;;;;;;;;4895176;29;20193;-89
2023/11/05 05:52:12;;;;;;;0.40;0.33;;;;;;;;;;4905719;29;20185;-88
2023/11/05 05:55:16;;;;;;;0.30;0.30;;;;;;;;;;4895171;29;20185;-89
2023/11/05 05:58:21;;;;;;;0.57;0.33;;;;;;;;;;4905686;29;20188;-89
2023/11/05 06:01:25;;;;;;;3.00;0.40;;;;;;;;;;4905669;29;20185;-89
2023/11/05 06:04:29;;;;;;;0.93;0.50;;;;;;;;;;4905672;29;20216;-89
2023/11/05 06:07:36;;;;;;;0.40;0.37;;;;;;;;;;4905629;29;20224;-89
2023/11/05 06:10:41;;;;;;;0.30;0.30;;;;;;;;;;4906513;29;20181;-89
2023/11/05 06:13:46;;;;;;;0.30;0.30;;;;;;;;;;4895318;29;20193;-89
2023/11/05 06:16:50;;;;;;;1.30;0.30;;;;;;;;;;4884340;29;20220;-89
2023/11/05 06:19:54;;;;;;;0.40;0.40;;;;;;;;;;4909145;29;20188;-89
2023/11/05 06:22:58;;;;;;;0.30;0.30;;;;;;;;;;4909239;29;20184;-89
2023/11/05 06:26:03;;;;;;;0.30;0.30;;;;;;;;;;4898601;29;20232;-89
2023/11/05 06:29:07;;;;;;;2.33;0.30;;;;;;;;;;4900440;29;20220;-89
2023/11/05 06:32:11;;;;;;;2.83;0.33;;;;;;;;;;4919985;29;20198;-89
2023/11/05 06:35:16;;;;;;;4.00;0.47;;;;;;;;;;4898324;29;20189;-89
2023/11/05 06:38:20;;;;;;;1.33;0.30;;;;;;;;;;4919780;29;20205;-89
2023/11/05 06:41:24;;;;;;;0.30;0.30;;;;;;;;;;4908991;29;20193;-88
2023/11/05 06:44:30;;;;;;;0.60;0.40;;;;;;;;;;4908977;29;20193;-89
2023/11/05 06:47:34;;;;;;;0.40;0.40;;;;;;;;;;4908882;29;20229;-89
2023/11/05 06:50:38;;;;;;;0.43;0.30;;;;;;;;;;4908728;29;20579;-89
2023/11/05 06:53:42;;;;;;;0.50;0.33;;;;;;;;;;4909036;29;20185;-89
2023/11/05 06:56:46;;;;;;;0.63;0.50;;;;;;;;;;4919543;29;20573;-89
2023/11/05 06:59:50;;;;;;;0.40;0.40;;;;;;;;;;4908921;29;20193;-89
2023/11/05 07:02:56;;;;;;;0.70;0.63;;;;;;;;;;4909314;29;20189;-89
2023/11/05 07:06:00;;;;;;;1.33;1.10;;;;;;;;;;4897899;29;20212;-89
2023/11/05 07:09:06;;;;;;;1.07;0.50;;;;;;;;;;4908817;29;20189;-89
2023/11/05 07:12:11;;;;;;;1.63;0.63;;;;;;;;;;4898064;29;20189;-89
2023/11/05 07:15:15;;;;;;;0.53;0.40;;;;;;;;;;4898313;29;20185;-89
2023/11/05 07:18:20;;;;;;;0.40;0.30;;;;;;;;;;4908678;29;20185;-89
2023/11/05 07:21:24;;;;;;;1.00;0.50;;;;;;;;;;4908258;29;20189;-89
2023/11/05 07:24:29;;;;;;;0.40;0.40;;;;;;;;;;4908416;29;20197;-89
2023/11/05 07:27:33;;;;;;;0.30;0.30;;;;;;;;;;4897518;29;20233;-89
2023/11/05 07:30:37;;;;;;;1.23;0.40;;;;;;;;;;4907603;29;20208;-89
2023/11/05 07:33:43;;;;;;;3.87;0.40;;;;;;;;;;4908205;29;20189;-89
2023/11/05 07:36:47;;;;;;;3.23;0.50;;;;;;;;;;4897560;29;20216;-89
2023/11/05 07:39:52;;;;;;;2.10;0.50;;;;;;;;;;4908361;29;20189;-89
2023/11/05 07:42:58;;;;;;;1.27;0.50;;;;;;;;;;4897333;29;20185;-89
2023/11/05 07:46:02;;;;;;;0.30;0.30;;;;;;;;;;4907954;29;20303;-89
2023/11/05 07:49:07;;;;;;;0.40;0.40;;;;;;;;;;4918694;29;20192;-89
2023/11/05 07:52:11;;;;;;;0.40;0.40;;;;;;;;;;4897112;29;20189;-89
2023/11/05 07:55:15;;;;;;;0.50;0.40;;;;;;;;;;4908013;29;20555;-89
2023/11/05 07:58:19;;;;;;;2.07;0.53;;;;;;;;;;4919013;29;20185;-89
2023/11/05 08:01:24;;;;;;;0.70;0.50;;;;;;;;;;4918531;29;20651;-89
2023/11/05 08:04:28;;;;;;;0.40;0.40;;;;;;;;;;4907939;29;20189;-89
2023/11/05 08:07:32;;;;;;;2.97;0.60;;;;;;;;;;4918571;29;20221;-89
2023/11/05 08:10:37;;;;;;;0.40;0.40;;;;;;;;;;4896977;29;20185;-89
2023/11/05 08:13:43;;;;;;;0.63;0.50;;;;;;;;;;4907987;29;20220;-89
2023/11/05 08:16:50;;;;;;;0.80;0.50;;;;;;;;;;4897291;29;20583;-89
2023/11/05 08:19:54;;;;;;;0.43;0.40;;;;;;;;;;4896994;29;20186;-89
2023/11/05 08:22:59;;;;;;;0.53;0.30;;;;;;;;;;4897226;29;20661;-88
2023/11/05 08:26:03;;;;;;;0.40;0.40;;;;;;;;;;4907509;29;20236;-89
2023/11/05 08:29:07;;;;;;;0.40;0.30;;;;;;;;;;4907686;29;20208;-89
2023/11/05 08:32:13;;;;;;;0.30;0.30;;;;;;;;;;4896913;29;20189;-89
2023/11/05 08:35:21;;;;;;;0.40;0.40;;;;;;;;;;4907243;29;20184;-89
2023/11/05 08:38:25;;;;;;;1.60;0.40;;;;;;;;;;4906998;29;20626;-89
2023/11/05 08:41:30;;;;;;;0.70;0.30;;;;;;;;;;4895516;29;20181;-88
2023/11/05 08:44:34;;;;;;;2.10;0.30;;;;;;;;;;4907631;29;20666;-89
2023/11/05 08:47:38;;;;;;;0.37;0.30;;;;;;;;;;4906763;29;20216;-89
2023/11/05 08:50:42;;;;;;;3.63;2.10;;;;;;;;;;4917472;29;20189;-88
2023/11/05 08:53:46;;;;;;;3.30;3.00;;;;;;;;;;4896499;29;20529;-89
2023/11/05 08:56:50;;;;;;;2.43;0.90;;;;;;;;;;4906755;29;20555;-89
2023/11/05 08:59:56;;;;;;;1.30;0.60;;;;;;;;;;4896262;29;20189;-88
2023/11/05 09:03:00;;;;;;;1.63;0.40;;;;;;;;;;4906979;29;20192;-89
2023/11/05 09:06:05;;;;;;;1.33;0.40;;;;;;;;;;4906520;29;20237;-89
2023/11/05 09:09:10;;;;;;;0.70;0.40;;;;;;;;;;4895875;29;20196;-89
2023/11/05 09:12:15;;;;;;;0.33;0.33;;;;;;;;;;4906558;29;20551;-89
2023/11/05 09:15:20;;;;;;;0.83;0.40;;;;;;;;;;4917374;29;20192;-89
2023/11/05 09:18:24;;;;;;;0.93;0.50;;;;;;;;;;4906912;29;20189;-89
2023/11/05 09:21:28;;;;;;;0.60;0.40;;;;;;;;;;4896387;29;20188;-88
2023/11/05 09:24:32;;;;;;;1.00;0.50;;;;;;;;;;4906541;29;20647;-89
2023/11/05 09:27:37;;;;;;;0.30;0.30;;;;;;;;;;4906603;29;20212;-89
2023/11/05 09:30:42;;;;;;;5.07;0.40;;;;;;;;;;4906121;29;20208;-88
2023/11/05 09:33:46;;;;;;;0.60;0.40;;;;;;;;;;4906809;29;20189;-89
2023/11/05 09:36:50;;;;;;;4.93;0.70;;;;;;;;;;4906514;29;20217;-89
2023/11/05 09:39:54;;;;;;;1.63;0.60;;;;;;;;;;4906894;29;20189;-89
2023/11/05 09:43:05;;;;;;;0.50;0.47;;;;;;;;;;4906640;29;20189;-88
2023/11/05 09:46:09;;;;;;;0.50;0.47;;;;;;;;;;4911575;29;20248;-89
2023/11/05 09:49:14;;;;;;;2.13;0.60;;;;;;;;;;4906501;29;20197;-89
2023/11/05 09:52:19;;;;;;;0.70;0.57;;;;;;;;;;4907869;29;20188;-88
2023/11/05 09:55:23;;;;;;;0.70;0.60;;;;;;;;;;4910327;29;20185;-89
2023/11/05 09:58:27;;;;;;;1.63;0.73;;;;;;;;;;4910313;29;20184;-88
2023/11/05 10:01:35;;;;;;;0.53;0.40;;;;;;;;;;4920508;29;20180;-88
2023/11/05 10:04:40;;;;;;;0.30;0.30;;;;;;;;;;4920965;29;20189;-89
2023/11/05 10:07:44;;;;;;;1.73;0.30;;;;;;;;;;4899902;29;20702;-89
2023/11/05 10:10:48;;;;;;;0.57;0.43;;;;;;;;;;4910071;29;20197;-89
2023/11/05 10:13:53;;;;;;;0.70;0.60;;;;;;;;;;4899413;29;20188;-89
2023/11/05 10:16:58;;;;;;;0.50;0.40;;;;;;;;;;4920959;29;20224;-89
2023/11/05 10:20:03;;;;;;;1.70;0.60;;;;;;;;;;4909935;29;20181;-89
2023/11/05 10:23:10;;;;;;;0.67;0.40;;;;;;;;;;4910178;29;20181;-90
2023/11/05 10:26:29;;;;;;;1.27;0.40;;;;;;;;;;4899019;29;20236;-89
2023/11/05 10:29:36;;;;;;;1.30;0.30;;;;;;;;;;4910087;29;20234;-89
2023/11/05 10:32:42;;;;;;;3.70;0.53;;;;;;;;;;4899500;29;20189;-89
2023/11/05 10:35:46;;;;;;;1.37;0.40;;;;;;;;;;4899683;29;20185;-89
2023/11/05 10:38:51;;;;;;;2.10;0.50;;;;;;;;;;4909967;29;20185;-89
2023/11/05 10:41:56;;;;;;;1.07;0.40;;;;;;;;;;4899620;29;20647;-89
2023/11/05 10:45:02;;;;;;;0.97;0.30;;;;;;;;;;4910067;29;20185;-90
2023/11/05 10:48:09;;;;;;;0.43;0.30;;;;;;;;;;4899092;29;20178;-90
2023/11/05 10:51:15;;;;;;;0.50;0.40;;;;;;;;;;4910349;29;20185;-89
2023/11/05 10:54:20;;;;;;;4.10;0.77;;;;;;;;;;4899893;29;20181;-89
2023/11/05 10:57:46;;;;;;;5.70;0.40;;;;;;;;;;4899632;29;20225;-90
2023/11/05 11:00:56;;;;;;;0.90;0.40;;;;;;;;;;4908905;29;20189;-90
2023/11/05 11:04:15;;;;;;;2.00;0.30;;;;;;;;;;4908084;29;20188;-90
2023/11/05 11:07:33;;;;;;;0.30;0.30;;;;;;;;;;4908669;29;20240;-89
2023/11/05 11:10:42;;;;;;;1.23;0.40;;;;;;;;;;4898109;29;20201;-89
2023/11/05 11:13:55;;;;;;;0.43;0.40;;;;;;;;;;4919922;29;20185;-89
2023/11/05 11:17:12;;;;;;;0.63;0.27;;;;;;;;;;4897864;29;20224;-90
2023/11/05 11:20:21;;;;;;;0.30;0.30;;;;;;;;;;4908702;29;20193;-89
2023/11/05 11:23:29;;;;;;;0.87;0.30;;;;;;;;;;4908432;29;20181;-89
2023/11/05 11:26:37;;;;;;;0.30;0.30;;;;;;;;;;4907941;29;20237;-89
2023/11/05 11:29:42;;;;;;;0.47;0.20;;;;;;;;;;4919054;29;20216;-89
2023/11/05 11:32:46;;;;;;;0.93;0.37;;;;;;;;;;4897325;29;20639;-88
2023/11/05 11:35:50;;;;;;;0.30;0.30;;;;;;;;;;4919116;29;20185;-88
2023/11/05 11:38:56;;;;;;;0.30;0.30;;;;;;;;;;4897474;29;20189;-89
2023/11/05 11:42:00;;;;;;;0.50;0.50;;;;;;;;;;4897677;29;20197;-87
2023/11/05 11:45:05;;;;;;;1.37;0.33;;;;;;;;;;4897589;29;20189;-87
2023/11/05 11:48:10;;;;;;;0.63;0.40;;;;;;;;;;4897645;29;20308;-88
2023/11/05 11:51:14;;;;;;;0.70;0.50;;;;;;;;;;4918920;29;20181;-88
2023/11/05 11:54:18;;;;;;;0.53;0.50;;;;;;;;;;4896629;29;20639;-88
2023/11/05 11:57:22;;;;;;;0.40;0.40;;;;;;;;;;4907442;29;20693;-89
2023/11/05 12:00:26;;;;;;;0.57;0.50;;;;;;;;;;4918377;29;20188;-89
2023/11/05 12:03:32;;;;;;;0.60;0.57;;;;;;;;;;4896698;29;20540;-89
2023/11/05 12:06:43;;;;;;;1.63;0.40;;;;;;;;;;4907550;29;20232;-88
2023/11/05 12:09:47;;;;;;;2.33;0.50;;;;;;;;;;4908278;29;20189;-88
2023/11/05 12:12:51;;;;;;;2.97;0.60;;;;;;;;;;4908342;29;20181;-88
2023/11/05 12:15:55;;;;;;;0.87;0.40;;;;;;;;;;4918562;29;20212;-80
2023/11/05 12:18:59;;;;;;;0.30;0.30;;;;;;;;;;4908871;29;20192;-87
2023/11/05 12:22:03;;;;;;;0.60;0.30;;;;;;;;;;4908177;29;20639;-87
2023/11/05 12:25:10;;;;;;;0.97;0.40;;;;;;;;;;4908801;29;20185;-87
2023/11/05 12:28:19;;;;;;;0.80;0.30;;;;;;;;;;4919540;29;20216;-88
2023/11/05 12:31:28;;;;;;;0.50;0.40;;;;;;;;;;4920319;29;20185;-88
2023/11/05 12:34:32;;;;;;;0.40;0.40;;;;;;;;;;4897937;29;20189;-88
2023/11/05 12:37:37;;;;;;;1.30;0.40;;;;;;;;;;4907572;29;20220;-87
2023/11/05 12:40:42;;;;;;;1.27;0.20;;;;;;;;;;4907640;29;20642;-87
2023/11/05 12:43:45;;;;;;;1.27;0.37;;;;;;;;;;4918710;29;20208;-87
2023/11/05 12:46:50;;;;;;;2.10;0.40;;;;;;;;;;4918360;29;20245;-87
2023/11/05 12:49:55;;;;;;;2.23;0.50;;;;;;;;;;4918600;29;20181;-87
2023/11/05 12:52:59;;;;;;;0.40;0.40;;;;;;;;;;4918193;29;20185;-87
2023/11/05 12:56:10;;;;;;;0.30;0.30;;;;;;;;;;4919331;29;20567;-87
2023/11/05 12:59:14;;;;;;;0.80;0.40;;;;;;;;;;4897054;29;20193;-87
2023/11/05 13:02:18;;;;;;;0.80;0.50;;;;;;;;;;4897320;29;20540;-87
2023/11/05 13:05:22;;;;;;;1.43;0.30;;;;;;;;;;4908262;29;20193;-87
2023/11/05 13:08:26;;;;;;;0.20;0.20;;;;;;;;;;4957518;23;20205;-89
2023/11/05 13:11:31;;;;;;;1.17;0.30;;;;;;;;;;4896450;29;20209;-90
2023/11/05 13:14:35;;;;;;;0.43;0.40;;;;;;;;;;4909023;29;20193;-90
2023/11/05 13:17:42;;;;;;;0.30;0.30;;;;;;;;;;4897898;29;20189;-89
2023/11/05 13:20:46;;;;;;;0.53;0.40;;;;;;;;;;4878978;29;20198;-91
2023/11/05 13:23:50;;;;;;;0.73;0.40;;;;;;;;;;4878977;29;20185;-91
2023/11/05 13:26:55;;;;;;;1.83;0.60;;;;;;;;;;4878458;29;20218;-91
2023/11/05 13:29:59;;;;;;;1.53;0.50;;;;;;;;;;4890463;29;20221;-90
2023/11/05 13:33:03;;;;;;;1.13;0.37;;;;;;;;;;4900420;29;20190;-90
2023/11/05 13:36:08;;;;;;;2.57;0.50;;;;;;;;;;4878449;29;20631;-90
2023/11/05 13:39:13;;;;;;;1.77;0.30;;;;;;;;;;4889184;29;20225;-90
2023/11/05 13:42:17;;;;;;;2.00;0.40;;;;;;;;;;4878192;29;20540;-90
2023/11/05 13:45:21;;;;;;;1.63;0.40;;;;;;;;;;4878783;29;20631;-90
2023/11/05 13:48:25;;;;;;;1.63;0.40;;;;;;;;;;4888904;29;20217;-90
2023/11/05 13:51:29;;;;;;;1.07;0.40;;;;;;;;;;4890138;29;20194;-89
2023/11/05 13:54:33;;;;;;;0.50;0.30;;;;;;;;;;4889619;29;20194;-94
2023/11/05 13:57:39;;;;;;;1.13;0.50;;;;;;;;;;4879775;29;20516;-93
2023/11/05 14:00:43;;;;;;;0.60;0.40;;;;;;;;;;4889336;29;20193;-91
2023/11/05 14:03:47;;;;;;;1.00;0.60;;;;;;;;;;4889647;29;20189;-92
2023/11/05 14:06:51;;;;;;;0.57;0.30;;;;;;;;;;4888072;29;20221;-89
2023/11/05 14:09:55;;;;;;;1.87;0.40;;;;;;;;;;4877206;29;20237;-89
2023/11/05 14:13:01;;;;;;;1.57;0.30;;;;;;;;;;4877270;29;20193;-89
2023/11/05 14:16:06;;;;;;;0.20;0.20;;;;;;;;;;4877134;29;20189;-89
2023/11/05 14:19:11;;;;;;;0.30;0.30;;;;;;;;;;4888132;29;20683;-89
2023/11/05 14:22:21;;;;;;;2.73;0.30;;;;;;;;;;4887883;29;20194;-88
2023/11/05 14:25:25;;;;;;;2.27;0.40;;;;;;;;;;4887763;29;20655;-88
2023/11/05 14:28:30;;;;;;;0.40;0.20;;;;;;;;;;4866892;29;20271;-88
2023/11/05 14:31:38;;;;;;;5.13;0.60;;;;;;;;;;4877433;29;20189;-90
2023/11/05 14:34:42;;;;;;;1.03;0.40;;;;;;;;;;4887983;29;20194;-90
2023/11/05 14:37:48;;;;;;;1.50;0.40;;;;;;;;;;4888164;29;20182;-89
2023/11/05 14:40:52;;;;;;;1.90;0.37;;;;;;;;;;4891854;29;20198;-89
2023/11/05 14:43:56;;;;;;;0.60;0.30;;;;;;;;;;4891550;29;20205;-90
2023/11/05 14:47:00;;;;;;;1.67;0.37;;;;;;;;;;4891323;29;20661;-91
2023/11/05 14:50:05;;;;;;;0.53;0.40;;;;;;;;;;4880387;29;20224;-91
2023/11/05 14:53:10;;;;;;;1.37;0.40;;;;;;;;;;4880215;29;20185;-90
2023/11/05 14:56:14;;;;;;;0.30;0.30;;;;;;;;;;4891198;29;20193;-89
2023/11/05 14:59:19;;;;;;;0.30;0.30;;;;;;;;;;4882510;29;20698;-89
2023/11/05 15:02:23;;;;;;;1.90;0.50;;;;;;;;;;4884139;29;20189;-87
2023/11/05 15:09:23;;;;;;;1.57;0.40;;;;;;;;;;4891118;29;20574;-88
2023/11/05 15:12:27;;;;;;;0.77;0.40;;;;;;;;;;4881543;29;20635;-89
2023/11/05 15:15:31;;;;;;;0.83;0.47;;;;;;;;;;4880534;29;20194;-89
2023/11/05 15:18:36;;;;;;;0.30;0.30;;;;;;;;;;4891311;29;20221;-89
2023/11/05 15:21:44;;;;;;;0.70;0.50;;;;;;;;;;4891238;29;20615;-89
2023/11/05 15:24:48;;;;;;;0.47;0.30;;;;;;;;;;4890948;29;20193;-88
2023/11/05 15:27:52;;;;;;;0.30;0.30;;;;;;;;;;4890938;29;20551;-89
2023/11/05 15:31:28;;;;;;;0.37;0.30;;;;;;;;;;4901901;29;20194;-89
2023/11/05 15:34:39;;;;;;;0.60;0.30;;;;;;;;;;4879971;29;20190;-88
2023/11/05 15:37:43;;;;;;;1.67;0.43;;;;;;;;;;4879825;29;20185;-88
2023/11/05 15:40:47;;;;;;;1.33;0.50;;;;;;;;;;4891110;29;20190;-89
2023/11/05 15:43:51;;;;;;;0.40;0.40;;;;;;;;;;4890406;29;20190;-89
2023/11/05 15:46:56;;;;;;;1.53;0.60;;;;;;;;;;4901812;29;20189;-88
2023/11/05 15:50:01;;;;;;;1.07;0.70;;;;;;;;;;4880254;29;20217;-88
2023/11/05 15:53:32;;;;;;;2.90;2.30;;;;;;;;;;4891002;29;20193;-90
2023/11/05 15:57:56;;;;;;;0.80;0.60;;;;;;;;;;4901818;29;20201;-89
2023/11/05 16:02:15;;;;;;;1.33;0.40;;;;;;;;;;4899828;29;20209;-90
2023/11/05 16:05:19;;;;;;;0.90;0.60;;;;;;;;;;4889807;29;20193;-90
2023/11/05 16:08:24;;;;;;;0.50;0.40;;;;;;;;;;4901175;29;20241;-90
2023/11/05 16:11:28;;;;;;;0.60;0.50;;;;;;;;;;4880356;29;20197;-89
2023/11/05 16:14:33;;;;;;;0.50;0.50;;;;;;;;;;4890753;29;20193;-90
2023/11/05 16:17:39;;;;;;;0.60;0.40;;;;;;;;;;4880532;29;20194;-90
2023/11/05 16:20:44;;;;;;;0.53;0.40;;;;;;;;;;4890448;29;20189;-90
2023/11/05 16:23:48;;;;;;;0.50;0.40;;;;;;;;;;4891305;29;20189;-90
2023/11/05 16:26:52;;;;;;;0.83;0.43;;;;;;;;;;4890698;29;20189;-89
2023/11/05 16:29:56;;;;;;;0.57;0.30;;;;;;;;;;4880397;29;20562;-90
2023/11/05 16:33:00;;;;;;;0.40;0.40;;;;;;;;;;4889038;29;20193;-90
2023/11/05 16:36:05;;;;;;;0.90;0.90;;;;;;;;;;4889272;29;20193;-88
2023/11/05 16:39:12;;;;;;;0.77;0.60;;;;;;;;;;4888328;29;20221;-87
2023/11/05 16:42:16;;;;;;;1.07;0.70;;;;;;;;;;4878747;29;20185;-88
2023/11/05 16:45:21;;;;;;;0.40;0.37;;;;;;;;;;4878614;29;20194;-88
2023/11/05 16:48:26;;;;;;;0.50;0.40;;;;;;;;;;4878278;29;20213;-88
2023/11/05 16:51:30;;;;;;;0.57;0.40;;;;;;;;;;4889191;29;20193;-88
2023/11/05 16:54:34;;;;;;;0.30;0.30;;;;;;;;;;4889062;29;20198;-88
2023/11/05 16:57:39;;;;;;;0.83;0.50;;;;;;;;;;4878524;29;20190;-87
2023/11/05 17:00:43;;;;;;;0.77;0.40;;;;;;;;;;4889060;29;20190;-88
2023/11/05 17:03:48;;;;;;;0.63;0.50;;;;;;;;;;4899618;29;20194;-88
2023/11/05 17:06:52;;;;;;;1.57;0.40;;;;;;;;;;4878014;29;20193;-88
2023/11/05 17:09:58;;;;;;;0.47;0.40;;;;;;;;;;4888032;29;20575;-88
2023/11/05 17:13:02;;;;;;;1.13;0.57;;;;;;;;;;4878705;29;20191;-87
2023/11/05 17:16:32;;;;;;;0.40;0.37;;;;;;;;;;4901022;29;20189;-87
2023/11/05 17:19:39;;;;;;;0.87;0.50;;;;;;;;;;4889056;29;20225;-87
2023/11/05 17:22:47;;;;;;;0.50;0.50;;;;;;;;;;4878607;29;20182;-87
2023/11/05 17:25:52;;;;;;;0.50;0.40;;;;;;;;;;4889094;29;20575;-88
2023/11/05 17:28:56;;;;;;;0.80;0.70;;;;;;;;;;4900286;29;20237;-87
2023/11/05 17:32:01;;;;;;;1.43;0.40;;;;;;;;;;4889475;29;20185;-87
2023/11/05 17:35:05;;;;;;;1.90;0.47;;;;;;;;;;4899669;29;20189;-88
2023/11/05 17:38:11;;;;;;;0.40;0.40;;;;;;;;;;4888665;29;20186;-88
2023/11/05 17:41:16;;;;;;;2.00;0.40;;;;;;;;;;4867432;29;20193;-87
2023/11/05 17:44:20;;;;;;;0.80;0.33;;;;;;;;;;4879177;29;20185;-85
2023/11/05 17:47:25;;;;;;;1.40;0.60;;;;;;;;;;4888644;29;20193;-88
2023/11/05 19:41:50;;;;;;;3.77;0.97;;;;;;;;;;4944741;29;20633;-90
2023/11/05 19:44:54;;;;;;;1.83;0.73;;;;;;;;;;4916082;29;20220;-89
2023/11/05 19:47:59;;;;;;;2.20;0.77;;;;;;;;;;4905475;29;20183;-89
2023/11/05 19:51:04;;;;;;;3.43;0.70;;;;;;;;;;4905296;29;20184;-89
2023/11/05 19:54:09;;;;;;;1.90;0.70;;;;;;;;;;4915924;29;20653;-89
2023/11/05 19:57:13;;;;;;;1.50;0.73;;;;;;;;;;4905068;29;20625;-89
2023/11/05 20:00:17;;;;;;;0.87;0.70;;;;;;;;;;4905213;29;20553;-90
2023/11/05 20:03:21;;;;;;;1.57;0.70;;;;;;;;;;4926729;29;20196;-90
2023/11/05 20:06:25;;;;;;;2.13;0.70;;;;;;;;;;4915942;29;20184;-90
2023/11/05 20:09:30;;;;;;;4.73;0.80;;;;;;;;;;4916022;29;20221;-89
2023/11/05 20:12:35;;;;;;;3.23;0.70;;;;;;;;;;4916003;29;20196;-90
2023/11/05 20:15:39;;;;;;;1.43;0.80;;;;;;;;;;4926404;29;20227;-90
2023/11/05 20:18:44;;;;;;;1.47;0.90;;;;;;;;;;4915630;29;20192;-90
2023/11/05 20:21:52;;;;;;;1.43;0.70;;;;;;;;;;4915413;29;20192;-90
2023/11/05 20:24:57;;;;;;;2.53;0.70;;;;;;;;;;4915204;29;20225;-90
2023/11/05 20:28:01;;;;;;;2.63;0.80;;;;;;;;;;4915343;29;20191;-91